createdAt,value
2023-05-05T00:00:23.688Z,3.50
2023-05-05T00:01:23.734Z,3.41
2023-05-05T00:02:23.832Z,3.43
2023-05-05T00:03:24.042Z,3.46
2023-05-05T00:04:23.955Z,3.43
2023-05-05T00:05:23.987Z,3.44
2023-05-05T00:06:24.043Z,3.51
2023-05-05T00:07:24.119Z,3.46
2023-05-05T00:08:24.178Z,3.43
2023-05-05T00:09:24.258Z,3.47
2023-05-05T00:10:24.306Z,3.39
2023-05-05T00:11:24.359Z,3.39
2023-05-05T00:12:24.435Z,3.39
2023-05-05T00:13:24.486Z,3.45
2023-05-05T00:14:24.542Z,3.38
2023-05-05T00:15:24.604Z,3.33
2023-05-05T00:16:24.703Z,3.35
2023-05-05T00:17:24.774Z,3.41
2023-05-05T00:18:24.829Z,3.35
2023-05-05T00:19:24.917Z,3.34
2023-05-05T00:20:24.943Z,3.34
2023-05-05T00:21:25.006Z,3.26
2023-05-05T00:22:25.097Z,3.27
2023-05-05T00:23:25.218Z,3.24
2023-05-05T00:24:25.239Z,3.21
2023-05-05T00:25:25.289Z,3.27
2023-05-05T00:26:25.379Z,3.31
2023-05-05T00:27:25.444Z,3.27
2023-05-05T00:28:25.522Z,3.26
2023-05-05T00:29:25.585Z,3.34
2023-05-05T00:30:25.667Z,3.28
2023-05-05T00:31:25.751Z,3.28
2023-05-05T00:32:25.827Z,3.29
2023-05-05T00:33:25.873Z,3.24
2023-05-05T00:34:25.945Z,3.26
2023-05-05T00:35:25.990Z,3.25
2023-05-05T00:36:26.077Z,3.26
2023-05-05T00:37:26.139Z,3.22
2023-05-05T00:38:26.202Z,3.25
2023-05-05T00:39:26.284Z,3.27
2023-05-05T00:40:26.349Z,3.20
2023-05-05T00:41:26.388Z,3.24
2023-05-05T00:42:26.466Z,3.22
2023-05-05T00:43:26.529Z,3.22
2023-05-05T00:44:26.623Z,3.21
2023-05-05T00:45:26.670Z,3.21
2023-05-05T00:46:26.798Z,3.25
2023-05-05T00:47:26.864Z,3.17
2023-05-05T00:48:26.863Z,3.20
2023-05-05T00:49:26.975Z,3.18
2023-05-05T00:50:27.021Z,3.22
2023-05-05T00:51:27.085Z,3.12
2023-05-05T00:52:27.160Z,3.14
2023-05-05T00:53:27.222Z,3.19
2023-05-05T00:54:27.292Z,3.17
2023-05-05T00:55:27.350Z,3.12
2023-05-05T00:56:27.486Z,3.14
2023-05-05T00:57:27.512Z,3.15
2023-05-05T00:58:27.521Z,3.09
2023-05-05T00:59:27.605Z,3.08
2023-05-05T01:00:27.677Z,3.03
2023-05-05T01:01:27.800Z,3.05
2023-05-05T01:02:27.837Z,3.02
2023-05-05T01:03:27.973Z,3.01
2023-05-05T01:04:27.937Z,3.01
2023-05-05T01:05:28.004Z,2.97
2023-05-05T01:06:28.072Z,2.95
2023-05-05T01:07:28.117Z,2.96
2023-05-05T01:08:28.175Z,2.94
2023-05-05T01:09:28.253Z,2.97
2023-05-05T01:10:28.323Z,2.93
2023-05-05T01:11:28.375Z,2.95
2023-05-05T01:12:28.465Z,2.94
2023-05-05T01:13:28.538Z,2.94
2023-05-05T01:14:28.581Z,2.91
2023-05-05T01:15:28.707Z,2.92
2023-05-05T01:16:28.769Z,2.89
2023-05-05T01:17:28.807Z,2.89
2023-05-05T01:18:28.852Z,2.87
2023-05-05T01:19:28.913Z,2.89
2023-05-05T01:20:28.964Z,2.84
2023-05-05T01:21:29.042Z,2.83
2023-05-05T01:22:29.104Z,2.87
2023-05-05T01:23:29.163Z,2.82
2023-05-05T01:24:29.214Z,2.90
2023-05-05T01:25:29.287Z,2.87
2023-05-05T01:26:29.343Z,2.79
2023-05-05T01:27:29.348Z,2.79
2023-05-05T01:28:29.361Z,2.79
2023-05-05T01:29:29.344Z,2.79
2023-05-05T01:30:29.327Z,2.81
2023-05-05T01:31:29.348Z,2.81
2023-05-05T01:32:29.397Z,2.80
2023-05-05T01:33:29.328Z,2.78
2023-05-05T01:34:29.338Z,2.74
2023-05-05T01:35:29.364Z,2.72
2023-05-05T01:36:29.340Z,2.71
2023-05-05T01:37:29.402Z,2.73
2023-05-05T01:38:29.462Z,2.70
2023-05-05T01:39:29.527Z,2.70
2023-05-05T01:40:29.578Z,2.69
2023-05-05T01:41:29.670Z,2.66
2023-05-05T01:42:29.639Z,2.66
2023-05-05T01:43:29.638Z,2.67
2023-05-05T01:44:29.660Z,2.67
2023-05-05T01:45:29.664Z,2.67
2023-05-05T01:46:29.642Z,2.66
2023-05-05T01:47:29.698Z,2.67
2023-05-05T01:48:29.651Z,2.67
2023-05-05T01:49:29.661Z,2.68
2023-05-05T01:50:29.675Z,2.65
2023-05-05T01:51:29.716Z,2.66
2023-05-05T01:52:29.660Z,2.66
2023-05-05T01:53:29.670Z,2.66
2023-05-05T01:54:29.647Z,2.66
2023-05-05T01:55:29.669Z,2.66
2023-05-05T01:56:29.667Z,2.66
2023-05-05T01:57:29.661Z,2.68
2023-05-05T01:58:29.659Z,2.73
2023-05-05T01:59:29.660Z,2.71
2023-05-05T02:00:29.659Z,2.68
2023-05-05T02:01:29.705Z,2.66
2023-05-05T02:02:29.714Z,2.65
2023-05-05T02:03:29.688Z,2.66
2023-05-05T02:04:29.701Z,2.64
2023-05-05T02:05:29.759Z,2.63
2023-05-05T02:06:29.818Z,2.63
2023-05-05T02:07:29.879Z,2.60
2023-05-05T02:08:29.958Z,2.58
2023-05-05T02:09:30.022Z,2.59
2023-05-05T02:10:30.088Z,2.54
2023-05-05T02:11:30.168Z,2.55
2023-05-05T02:12:30.248Z,2.59
2023-05-05T02:13:30.328Z,2.58
2023-05-05T02:14:30.380Z,2.59
2023-05-05T02:15:30.493Z,2.58
2023-05-05T02:16:30.505Z,2.55
2023-05-05T02:17:30.622Z,2.57
2023-05-05T02:18:30.660Z,2.51
2023-05-05T02:19:30.717Z,2.53
2023-05-05T02:20:30.790Z,2.50
2023-05-05T02:21:30.862Z,2.50
2023-05-05T02:22:30.932Z,2.54
2023-05-05T02:23:31.019Z,2.49
2023-05-05T02:24:31.031Z,2.45
2023-05-05T02:25:31.107Z,2.46
2023-05-05T02:26:31.171Z,2.44
2023-05-05T02:27:31.288Z,2.50
2023-05-05T02:28:31.332Z,2.42
2023-05-05T02:29:31.383Z,2.39
2023-05-05T02:30:31.433Z,2.44
2023-05-05T02:31:31.557Z,2.34
2023-05-05T02:32:31.751Z,2.40
2023-05-05T02:33:31.634Z,2.41
2023-05-05T02:34:31.728Z,2.41
2023-05-05T02:35:31.677Z,2.41
2023-05-05T02:36:31.636Z,2.42
2023-05-05T02:37:31.729Z,2.40
2023-05-05T02:38:31.705Z,2.41
2023-05-05T02:39:31.699Z,2.39
2023-05-05T02:40:31.722Z,2.36
2023-05-05T02:41:31.638Z,2.37
2023-05-05T02:42:31.607Z,2.36
2023-05-05T02:43:31.609Z,2.36
2023-05-05T02:44:31.612Z,2.31
2023-05-05T02:45:31.623Z,2.29
2023-05-05T02:46:31.650Z,2.31
2023-05-05T02:47:31.740Z,2.30
2023-05-05T02:48:31.821Z,2.30
2023-05-05T02:49:31.814Z,2.30
2023-05-05T02:50:31.859Z,2.31
2023-05-05T02:51:31.739Z,2.31
2023-05-05T02:52:31.853Z,2.32
2023-05-05T02:53:31.802Z,2.32
2023-05-05T02:54:31.752Z,2.33
2023-05-05T02:55:31.727Z,2.33
2023-05-05T02:56:32.693Z,2.30
2023-05-05T02:57:31.736Z,2.28
2023-05-05T02:58:31.878Z,2.23
2023-05-05T02:59:31.884Z,2.23
2023-05-05T03:00:31.933Z,2.21
2023-05-05T03:01:32.034Z,2.21
2023-05-05T03:02:32.126Z,2.23
2023-05-05T03:03:32.131Z,2.20
2023-05-05T03:04:32.096Z,2.19
2023-05-05T03:05:32.163Z,2.19
2023-05-05T03:06:32.237Z,2.21
2023-05-05T03:07:32.315Z,2.22
2023-05-05T03:08:32.407Z,2.23
2023-05-05T03:09:32.390Z,2.23
2023-05-05T03:10:32.399Z,2.23
2023-05-05T03:11:32.384Z,2.20
2023-05-05T03:12:32.397Z,2.24
2023-05-05T03:13:32.390Z,2.18
2023-05-05T03:14:33.525Z,2.22
2023-05-05T03:15:32.401Z,2.22
2023-05-05T03:16:32.445Z,2.22
2023-05-05T03:17:32.469Z,2.22
2023-05-05T03:18:32.390Z,2.22
2023-05-05T03:19:32.397Z,2.23
2023-05-05T03:20:32.406Z,2.22
2023-05-05T03:21:32.399Z,2.21
2023-05-05T03:22:32.365Z,2.24
2023-05-05T03:23:32.377Z,2.23
2023-05-05T03:24:32.362Z,2.22
2023-05-05T03:25:32.368Z,2.19
2023-05-05T03:26:32.413Z,2.16
2023-05-05T03:27:32.463Z,2.19
2023-05-05T03:28:32.537Z,2.12
2023-05-05T03:29:32.605Z,2.19
2023-05-05T03:30:32.648Z,2.14
2023-05-05T03:31:32.762Z,2.15
2023-05-05T03:32:32.794Z,2.15
2023-05-05T03:33:33.198Z,2.17
2023-05-05T03:34:32.897Z,2.17
2023-05-05T03:35:33.000Z,2.19
2023-05-05T03:36:33.080Z,2.11
2023-05-05T03:37:33.142Z,2.14
2023-05-05T03:38:33.198Z,2.12
2023-05-05T03:39:33.202Z,2.13
2023-05-05T03:40:43.640Z,2.09
2023-05-05T03:41:34.237Z,2.09
2023-05-05T03:42:33.249Z,2.10
2023-05-05T03:43:33.270Z,2.11
2023-05-05T03:44:33.298Z,2.12
2023-05-05T03:45:33.286Z,2.16
2023-05-05T03:46:33.219Z,2.16
2023-05-05T03:47:33.268Z,2.17
2023-05-05T03:48:33.732Z,2.12
2023-05-05T03:49:33.221Z,2.10
2023-05-05T03:50:33.194Z,2.11
2023-05-05T03:51:33.259Z,2.15
2023-05-05T03:52:33.315Z,2.12
2023-05-05T03:53:33.350Z,2.10
2023-05-05T03:54:33.412Z,2.10
2023-05-05T03:55:33.439Z,2.09
2023-05-05T03:56:33.436Z,2.10
2023-05-05T03:57:33.458Z,2.10
2023-05-05T03:58:33.485Z,2.09
2023-05-05T03:59:33.546Z,2.07
2023-05-05T04:00:33.630Z,2.09
2023-05-05T04:01:33.653Z,2.09
2023-05-05T04:02:33.768Z,2.08
2023-05-05T04:03:33.854Z,2.08
2023-05-05T04:04:33.859Z,2.07
2023-05-05T04:05:33.907Z,2.08
2023-05-05T04:06:33.987Z,2.06
2023-05-05T04:07:33.967Z,2.06
2023-05-05T04:08:34.040Z,2.06
2023-05-05T04:09:33.973Z,2.06
2023-05-05T04:10:33.971Z,2.08
2023-05-05T04:11:33.950Z,2.11
2023-05-05T04:12:34.012Z,2.10
2023-05-05T04:13:33.948Z,2.10
2023-05-05T04:14:33.952Z,2.10
2023-05-05T04:15:33.949Z,2.08
2023-05-05T04:16:33.986Z,2.06
2023-05-05T04:17:34.075Z,2.09
2023-05-05T04:18:34.108Z,2.05
2023-05-05T04:19:34.163Z,2.06
2023-05-05T04:20:34.231Z,2.07
2023-05-05T04:21:34.293Z,2.10
2023-05-05T04:22:34.366Z,2.04
2023-05-05T04:23:34.450Z,2.05
2023-05-05T04:24:34.448Z,2.05
2023-05-05T04:25:34.522Z,2.04
2023-05-05T04:26:34.549Z,2.04
2023-05-05T04:27:34.585Z,2.04
2023-05-05T04:28:34.684Z,2.07
2023-05-05T04:29:34.694Z,2.06
2023-05-05T04:30:34.774Z,2.07
2023-05-05T04:31:34.862Z,2.08
2023-05-05T04:32:34.878Z,2.08
2023-05-05T04:33:35.007Z,2.05
2023-05-05T04:34:35.008Z,2.04
2023-05-05T04:35:35.095Z,2.06
2023-05-05T04:36:35.142Z,2.04
2023-05-05T04:37:35.223Z,2.05
2023-05-05T04:38:35.309Z,2.01
2023-05-05T04:39:35.262Z,2.02
2023-05-05T04:40:35.257Z,2.02
2023-05-05T04:41:35.262Z,2.02
2023-05-05T04:42:35.266Z,2.01
2023-05-05T04:43:35.269Z,2.01
2023-05-05T04:44:35.265Z,2.00
2023-05-05T04:45:35.274Z,2.00
2023-05-05T04:46:35.306Z,2.04
2023-05-05T04:47:35.293Z,2.06
2023-05-05T04:48:35.333Z,2.03
2023-05-05T04:49:35.404Z,2.01
2023-05-05T04:50:35.480Z,1.97
2023-05-05T04:51:35.560Z,2.02
2023-05-05T04:52:35.611Z,2.02
2023-05-05T04:53:35.685Z,2.01
2023-05-05T04:54:35.734Z,1.94
2023-05-05T04:55:35.800Z,1.99
2023-05-05T04:56:35.862Z,1.99
2023-05-05T04:57:35.930Z,2.00
2023-05-05T04:58:36.007Z,1.97
2023-05-05T04:59:36.082Z,2.00
2023-05-05T05:00:36.136Z,1.97
2023-05-05T05:01:38.275Z,1.99
2023-05-05T05:02:36.273Z,1.99
2023-05-05T05:03:36.473Z,1.98
2023-05-05T05:04:36.391Z,2.01
2023-05-05T05:05:36.464Z,1.96
2023-05-05T05:06:36.528Z,1.95
2023-05-05T05:07:36.599Z,1.91
2023-05-05T05:08:36.674Z,1.93
2023-05-05T05:09:36.703Z,1.94
2023-05-05T05:10:36.777Z,1.93
2023-05-05T05:11:36.841Z,1.95
2023-05-05T05:12:36.963Z,1.96
2023-05-05T05:13:36.959Z,1.94
2023-05-05T05:14:37.023Z,1.94
2023-05-05T05:15:37.092Z,1.94
2023-05-05T05:16:37.173Z,1.93
2023-05-05T05:17:37.207Z,1.95
2023-05-05T05:18:37.304Z,1.97
2023-05-05T05:19:37.303Z,1.96
2023-05-05T05:20:37.382Z,1.94
2023-05-05T05:21:37.443Z,1.97
2023-05-05T05:22:37.509Z,1.93
2023-05-05T05:23:37.592Z,1.93
2023-05-05T05:24:37.662Z,1.94
2023-05-05T05:25:37.686Z,1.92
2023-05-05T05:26:37.731Z,1.94
2023-05-05T05:27:37.728Z,1.95
2023-05-05T05:28:37.729Z,1.95
2023-05-05T05:29:37.723Z,1.96
2023-05-05T05:30:37.766Z,1.98
2023-05-05T05:31:37.935Z,2.03
2023-05-05T05:32:37.738Z,1.95
2023-05-05T05:33:37.710Z,1.97
2023-05-05T05:34:37.696Z,2.00
2023-05-05T05:35:37.702Z,2.08
2023-05-05T05:36:37.706Z,2.27
2023-05-05T05:37:37.841Z,2.49
2023-05-05T05:38:37.778Z,2.67
2023-05-05T05:39:37.817Z,3.05
2023-05-05T05:40:38.022Z,3.31
2023-05-05T05:41:37.919Z,3.44
2023-05-05T05:42:37.956Z,3.84
2023-05-05T05:43:38.025Z,3.97
2023-05-05T05:44:38.054Z,4.09
2023-05-05T05:45:38.163Z,4.69
2023-05-05T05:46:38.194Z,4.62
2023-05-05T05:47:38.190Z,5.33
2023-05-05T05:48:38.231Z,6.04
2023-05-05T05:49:38.235Z,5.91
2023-05-05T05:50:38.264Z,6.67
2023-05-05T05:51:38.241Z,6.67
2023-05-05T05:52:38.217Z,6.69
2023-05-05T05:53:38.213Z,6.78
2023-05-05T05:54:38.274Z,6.58
2023-05-05T05:55:38.218Z,5.85
2023-05-05T05:56:38.228Z,3.73
2023-05-05T05:57:38.240Z,3.49
2023-05-05T05:58:38.252Z,2.38
2023-05-05T05:59:38.333Z,1.87
2023-05-05T06:00:38.187Z,1.99
2023-05-05T06:01:38.192Z,1.86
2023-05-05T06:02:38.316Z,1.42
2023-05-05T06:03:38.273Z,1.11
2023-05-05T06:04:38.236Z,1.14
2023-05-05T06:05:38.168Z,1.25
2023-05-05T06:06:38.149Z,1.25
2023-05-05T06:07:38.199Z,1.27
2023-05-05T06:08:38.139Z,1.23
2023-05-05T06:09:38.145Z,1.00
2023-05-05T06:10:38.754Z,0.99
2023-05-05T06:11:38.272Z,1.32
2023-05-05T06:12:38.304Z,1.33
2023-05-05T06:13:38.247Z,1.39
2023-05-05T06:14:38.277Z,1.57
2023-05-05T06:15:38.293Z,1.90
2023-05-05T06:16:38.211Z,2.46
2023-05-05T06:17:38.227Z,2.82
2023-05-05T06:18:38.228Z,2.83
2023-05-05T06:19:38.207Z,2.89
2023-05-05T06:20:38.190Z,3.08
2023-05-05T06:21:38.229Z,3.54
2023-05-05T06:22:38.224Z,4.19
2023-05-05T06:23:38.157Z,4.94
2023-05-05T06:24:38.129Z,5.18
2023-05-05T06:25:38.134Z,5.89
2023-05-05T06:26:38.146Z,6.29
2023-05-05T06:27:38.095Z,6.62
2023-05-05T06:28:38.088Z,6.63
2023-05-05T06:29:38.060Z,6.84
2023-05-05T06:30:38.089Z,7.20
2023-05-05T06:31:38.133Z,7.58
2023-05-05T06:32:38.015Z,7.93
2023-05-05T06:33:37.985Z,8.39
2023-05-05T06:34:38.031Z,8.99
2023-05-05T06:35:37.945Z,9.45
2023-05-05T06:36:38.012Z,9.64
2023-05-05T06:37:38.048Z,10.03
2023-05-05T06:38:38.271Z,10.48
2023-05-05T06:39:38.041Z,10.83
2023-05-05T06:40:38.059Z,11.23
2023-05-05T06:41:38.081Z,11.47
2023-05-05T06:42:38.767Z,12.12
2023-05-05T06:43:38.095Z,12.72
2023-05-05T06:44:38.087Z,13.31
2023-05-05T06:45:38.107Z,13.96
2023-05-05T06:46:38.164Z,13.98
2023-05-05T06:47:38.240Z,14.01
2023-05-05T06:48:38.210Z,14.03
2023-05-05T06:49:38.321Z,14.04
2023-05-05T06:50:38.233Z,14.65
2023-05-05T06:51:38.549Z,14.95
2023-05-05T06:52:38.250Z,14.95
2023-05-05T06:53:38.439Z,15.31
2023-05-05T06:54:38.496Z,15.39
2023-05-05T06:55:38.335Z,15.30
2023-05-05T06:56:38.360Z,15.27
2023-05-05T06:57:38.324Z,15.09
2023-05-05T06:58:38.397Z,15.12
2023-05-05T06:59:38.346Z,15.06
2023-05-05T07:00:38.392Z,14.84
2023-05-05T07:01:38.416Z,14.17
2023-05-05T07:02:38.599Z,13.90
2023-05-05T07:03:38.476Z,13.56
2023-05-05T07:04:38.473Z,13.15
2023-05-05T07:05:38.575Z,12.83
2023-05-05T07:06:38.501Z,13.19
2023-05-05T07:07:38.627Z,12.51
2023-05-05T07:08:38.591Z,12.53
2023-05-05T07:09:38.611Z,12.47
2023-05-05T07:10:38.656Z,12.18
2023-05-05T07:11:38.724Z,11.98
2023-05-05T07:12:38.744Z,11.98
2023-05-05T07:13:38.744Z,11.54
2023-05-05T07:14:39.002Z,11.00
2023-05-05T07:15:38.667Z,10.51
2023-05-05T07:16:38.724Z,10.14
2023-05-05T07:17:38.692Z,9.74
2023-05-05T07:18:38.635Z,9.46
2023-05-05T07:19:38.649Z,9.26
2023-05-05T07:20:38.609Z,9.44
2023-05-05T07:21:38.642Z,9.48
2023-05-05T07:22:38.647Z,9.23
2023-05-05T07:23:38.718Z,9.46
2023-05-05T07:24:38.744Z,9.33
2023-05-05T07:25:38.835Z,9.16
2023-05-05T07:26:38.855Z,9.88
2023-05-05T07:27:38.903Z,9.89
2023-05-05T07:28:38.997Z,10.02
2023-05-05T07:29:39.045Z,10.62
2023-05-05T07:30:39.108Z,10.61
2023-05-05T07:31:39.199Z,10.44
2023-05-05T07:32:39.283Z,9.61
2023-05-05T07:33:39.313Z,9.42
2023-05-05T07:34:39.339Z,9.15
2023-05-05T07:35:39.566Z,8.89
2023-05-05T07:36:39.446Z,8.49
2023-05-05T07:37:39.678Z,9.08
2023-05-05T07:38:39.575Z,7.16
2023-05-05T07:39:39.635Z,4.71
2023-05-05T07:40:39.656Z,4.53
2023-05-05T07:41:39.728Z,3.42
2023-05-05T07:42:39.744Z,1.93
2023-05-05T07:43:40.532Z,1.14
2023-05-05T07:44:39.831Z,0.49
2023-05-05T07:45:39.955Z,0.43
2023-05-05T07:46:39.894Z,0.34
2023-05-05T07:47:39.986Z,0.34
2023-05-05T07:48:40.018Z,0.49
2023-05-05T07:50:59.112Z,0.50
2023-05-05T07:51:59.129Z,0.50
2023-05-05T07:53:10.929Z,0.50
2023-05-05T07:54:00.123Z,0.50
2023-05-05T07:54:59.101Z,0.50
2023-05-05T07:55:59.113Z,0.50
2023-05-05T07:56:59.113Z,0.50
2023-05-05T07:57:59.113Z,0.50
2023-05-05T07:58:59.171Z,0.75
2023-05-05T07:59:59.137Z,0.42
2023-05-05T08:00:59.117Z,0.47
2023-05-05T08:01:59.173Z,0.52
2023-05-05T08:02:59.182Z,0.41
2023-05-05T08:03:59.324Z,0.34
2023-05-05T08:04:59.807Z,0.43
2023-05-05T08:05:59.168Z,0.44
2023-05-05T08:06:59.128Z,0.46
2023-05-05T08:07:59.141Z,0.48
2023-05-05T08:08:59.282Z,0.46
2023-05-05T08:09:59.115Z,0.48
2023-05-05T08:10:59.122Z,0.55
2023-05-05T08:11:59.127Z,0.59
2023-05-05T08:12:59.185Z,0.51
2023-05-05T08:13:59.145Z,0.49
2023-05-05T08:14:59.179Z,0.50
2023-05-05T08:15:59.241Z,0.50
2023-05-05T08:16:59.280Z,0.50
2023-05-05T08:17:59.400Z,0.50
2023-05-05T08:18:59.330Z,0.46
2023-05-05T08:19:59.333Z,0.43
2023-05-05T08:20:59.358Z,0.41
2023-05-05T08:22:01.075Z,0.40
2023-05-05T08:22:59.365Z,0.40
2023-05-05T08:23:59.371Z,0.40
2023-05-05T08:24:59.416Z,0.42
2023-05-05T08:25:59.536Z,0.39
2023-05-05T08:26:59.380Z,0.38
2023-05-05T08:27:59.366Z,0.39
2023-05-05T08:28:59.410Z,0.54
2023-05-05T08:29:59.395Z,0.60
2023-05-05T08:30:59.470Z,0.67
2023-05-05T08:31:59.462Z,0.86
2023-05-05T08:32:59.624Z,0.67
2023-05-05T08:33:59.564Z,0.85
2023-05-05T08:34:59.600Z,1.04
2023-05-05T08:35:59.624Z,0.92
2023-05-05T08:36:59.638Z,1.66
2023-05-05T08:37:59.660Z,1.13
2023-05-05T08:38:59.676Z,1.47
2023-05-05T08:39:59.776Z,1.94
2023-05-05T08:40:59.829Z,1.61
2023-05-05T08:41:59.729Z,1.31
2023-05-05T08:42:59.757Z,0.99
2023-05-05T08:43:59.833Z,1.02
2023-05-05T08:44:59.826Z,1.28
2023-05-05T08:45:59.882Z,1.74
2023-05-05T08:46:59.939Z,1.94
2023-05-05T08:47:59.956Z,1.31
2023-05-05T08:48:59.955Z,1.06
2023-05-05T08:49:59.927Z,1.02
2023-05-05T08:51:01.336Z,1.12
2023-05-05T08:51:59.931Z,0.95
2023-05-05T08:52:59.986Z,1.69
2023-05-05T08:54:00.227Z,1.99
2023-05-05T08:54:59.992Z,2.20
2023-05-05T08:55:59.972Z,2.85
2023-05-05T08:56:59.967Z,5.35
2023-05-05T08:58:00.214Z,6.12
2023-05-05T08:59:00.008Z,5.57
2023-05-05T08:59:59.977Z,7.05
2023-05-05T09:01:00.093Z,4.82
2023-05-05T09:02:00.044Z,3.10
2023-05-05T09:03:00.087Z,4.83
2023-05-05T09:03:59.967Z,4.40
2023-05-05T09:05:00.288Z,5.64
2023-05-05T09:06:00.047Z,7.44
2023-05-05T09:07:00.167Z,7.11
2023-05-05T09:08:00.159Z,11.28
2023-05-05T09:09:00.226Z,12.66
2023-05-05T09:10:00.344Z,12.74
2023-05-05T09:11:00.442Z,12.83
2023-05-05T09:12:00.193Z,8.10
2023-05-05T09:13:00.325Z,6.03
2023-05-05T09:14:00.197Z,5.38
2023-05-05T09:15:00.210Z,6.39
2023-05-05T09:16:00.164Z,7.15
2023-05-05T09:17:00.283Z,7.17
2023-05-05T09:18:00.206Z,6.07
2023-05-05T09:19:00.215Z,4.54
2023-05-05T09:20:00.202Z,7.19
2023-05-05T09:21:00.193Z,6.75
2023-05-05T09:22:00.169Z,4.43
2023-05-05T09:23:00.249Z,4.22
2023-05-05T09:24:07.344Z,4.18
2023-05-05T09:25:01.151Z,4.19
2023-05-05T09:26:00.147Z,4.20
2023-05-05T09:27:00.145Z,4.36
2023-05-05T09:28:00.137Z,6.12
2023-05-05T09:29:00.248Z,11.29
2023-05-05T09:30:00.287Z,7.60
2023-05-05T09:31:00.173Z,7.65
2023-05-05T09:32:00.100Z,7.68
2023-05-05T09:33:00.199Z,7.00
2023-05-05T09:34:00.128Z,7.93
2023-05-05T09:35:00.140Z,6.30
2023-05-05T09:36:00.077Z,4.73
2023-05-05T09:37:00.073Z,8.67
2023-05-05T09:38:00.136Z,15.01
2023-05-05T09:39:00.219Z,15.77
2023-05-05T09:40:00.193Z,11.25
2023-05-05T09:41:00.212Z,11.29
2023-05-05T09:42:00.132Z,11.76
2023-05-05T09:43:00.198Z,11.54
2023-05-05T09:44:00.802Z,14.93
2023-05-05T09:45:00.396Z,16.54
2023-05-05T09:46:00.126Z,8.68
2023-05-05T09:47:00.101Z,7.38
2023-05-05T09:48:00.877Z,5.89
2023-05-05T09:49:00.067Z,4.52
2023-05-05T09:50:00.053Z,5.14
2023-05-05T09:51:00.059Z,9.08
2023-05-05T09:52:00.162Z,10.55
2023-05-05T09:53:00.172Z,14.39
2023-05-05T09:54:00.167Z,26.00
2023-05-05T09:55:00.233Z,44.73
2023-05-05T09:56:00.236Z,25.10
2023-05-05T09:57:00.847Z,18.37
2023-05-05T09:58:00.289Z,18.61
2023-05-05T09:59:00.377Z,19.38
2023-05-05T10:00:00.568Z,11.46
2023-05-05T10:01:00.483Z,8.37
2023-05-05T10:02:00.513Z,7.27
2023-05-05T10:03:00.545Z,12.60
2023-05-05T10:04:00.562Z,18.60
2023-05-05T10:05:02.457Z,29.92
2023-05-05T10:06:00.632Z,41.50
2023-05-05T10:07:00.660Z,63.15
2023-05-05T10:08:00.694Z,78.89
2023-05-05T10:09:00.749Z,83.55
2023-05-05T10:10:00.780Z,143.08
2023-05-05T10:11:00.778Z,135.12
2023-05-05T10:12:00.820Z,153.96
2023-05-05T10:13:00.810Z,160.98
2023-05-05T10:14:00.774Z,188.17
2023-05-05T10:15:00.852Z,141.70
2023-05-05T10:16:00.818Z,144.33
2023-05-05T10:17:00.883Z,166.17
2023-05-05T10:18:07.824Z,209.34
2023-05-05T10:19:02.215Z,199.45
2023-05-05T10:20:00.788Z,144.48
2023-05-05T10:21:00.758Z,215.58
2023-05-05T10:22:00.775Z,220.94
2023-05-05T10:23:00.724Z,262.80
2023-05-05T10:24:00.728Z,352.51
2023-05-05T10:25:00.688Z,361.45
2023-05-05T10:26:00.659Z,428.28
2023-05-05T10:27:00.656Z,448.49
2023-05-05T10:28:00.634Z,491.98
2023-05-05T10:29:00.634Z,482.12
2023-05-05T10:30:00.885Z,370.06
2023-05-05T10:31:00.602Z,387.23
2023-05-05T10:32:00.604Z,451.56
2023-05-05T10:34:00.704Z,469.57
2023-05-05T10:35:00.513Z,360.86
2023-05-05T10:36:00.540Z,480.36
2023-05-05T10:37:00.499Z,444.96
2023-05-05T10:38:00.457Z,551.99
2023-05-05T10:39:00.484Z,603.77
2023-05-05T10:40:00.479Z,467.10
2023-05-05T10:41:00.391Z,427.85
2023-05-05T10:42:00.435Z,374.99
2023-05-05T10:43:00.368Z,492.30
2023-05-05T10:44:02.889Z,624.06
2023-05-05T10:45:00.372Z,603.97
2023-05-05T10:46:00.841Z,608.87
2023-05-05T10:47:00.292Z,600.87
2023-05-05T10:48:00.304Z,580.93
2023-05-05T10:49:00.468Z,391.87
2023-05-05T10:50:00.334Z,375.27
2023-05-05T10:51:00.232Z,372.65
2023-05-05T10:52:00.197Z,200.81
2023-05-05T10:53:00.185Z,273.58
2023-05-05T10:54:00.224Z,346.20
2023-05-05T10:55:00.152Z,398.79
2023-05-05T10:56:00.170Z,490.10
2023-05-05T10:57:00.098Z,527.33
2023-05-05T10:58:00.137Z,552.04
2023-05-05T10:59:00.959Z,458.62
2023-05-05T11:00:00.096Z,442.51
2023-05-05T11:01:00.047Z,509.67
2023-05-05T11:02:01.862Z,581.07
2023-05-05T11:03:00.145Z,635.31
2023-05-05T11:03:59.980Z,696.96
2023-05-05T11:05:00.015Z,782.00
2023-05-05T11:05:59.923Z,830.83
2023-05-05T11:06:59.924Z,851.95
2023-05-05T11:08:00.009Z,851.57
2023-05-05T11:08:59.894Z,862.73
2023-05-05T11:09:59.993Z,865.55
2023-05-05T11:10:59.868Z,866.11
2023-05-05T11:11:59.828Z,880.18
2023-05-05T11:12:59.846Z,892.43
2023-05-05T11:13:59.804Z,936.55
2023-05-05T11:14:59.814Z,982.85
2023-05-05T11:15:59.794Z,1000.00
2023-05-05T11:16:59.767Z,1000.00
2023-05-05T11:17:59.797Z,1000.00
2023-05-05T11:18:59.755Z,1000.00
2023-05-05T11:19:59.817Z,930.46
2023-05-05T11:20:59.708Z,618.92
2023-05-05T11:21:59.711Z,374.44
2023-05-05T11:22:59.685Z,328.93
2023-05-05T11:23:59.655Z,304.66
2023-05-05T11:24:59.649Z,281.62
2023-05-05T11:25:59.618Z,256.35
2023-05-05T11:26:59.626Z,259.32
2023-05-05T11:27:59.683Z,246.16
2023-05-05T11:28:59.589Z,205.53
2023-05-05T11:29:59.663Z,215.71
2023-05-05T11:30:59.962Z,243.13
2023-05-05T11:31:59.785Z,278.44
2023-05-05T11:32:59.890Z,307.08
2023-05-05T11:33:59.838Z,322.12
2023-05-05T11:34:59.898Z,334.49
2023-05-05T11:35:59.932Z,347.59
2023-05-05T11:36:59.979Z,340.55
2023-05-05T11:38:00.034Z,347.80
2023-05-05T11:39:00.113Z,354.14
2023-05-05T11:40:00.200Z,374.52
2023-05-05T11:41:00.180Z,443.48
2023-05-05T11:42:00.257Z,429.88
2023-05-05T11:43:00.290Z,415.71
2023-05-05T11:44:00.351Z,421.37
2023-05-05T11:45:00.423Z,408.50
2023-05-05T11:46:00.476Z,365.81
2023-05-05T11:47:00.526Z,362.03
2023-05-05T11:48:00.590Z,379.93
2023-05-05T11:49:00.628Z,390.70
2023-05-05T11:50:00.680Z,386.66
2023-05-05T11:51:00.710Z,384.23
2023-05-05T11:52:00.774Z,360.27
2023-05-05T11:53:00.785Z,335.03
2023-05-05T11:54:00.725Z,315.28
2023-05-05T11:55:00.713Z,295.31
2023-05-05T11:56:00.688Z,287.36
2023-05-05T11:57:00.715Z,268.53
2023-05-05T11:58:00.705Z,266.48
2023-05-05T11:59:00.693Z,259.22
2023-05-05T12:00:00.700Z,241.47
2023-05-05T12:01:00.668Z,222.57
2023-05-05T12:02:00.665Z,215.10
2023-05-05T12:03:00.879Z,206.24
2023-05-05T12:04:00.828Z,208.08
2023-05-05T12:05:00.733Z,200.87
2023-05-05T12:06:00.663Z,191.05
2023-05-05T12:07:00.651Z,189.38
2023-05-05T12:08:00.645Z,184.40
2023-05-05T12:09:00.706Z,179.51
2023-05-05T12:10:00.665Z,175.59
2023-05-05T12:11:00.609Z,175.64
2023-05-05T12:12:00.589Z,164.76
2023-05-05T12:13:00.603Z,161.60
2023-05-05T12:14:00.575Z,158.67
2023-05-05T12:15:00.609Z,157.64
2023-05-05T12:16:00.592Z,149.84
2023-05-05T12:17:00.548Z,147.92
2023-05-05T12:18:02.778Z,145.97
2023-05-05T12:19:00.736Z,150.48
2023-05-05T12:20:00.710Z,152.33
2023-05-05T12:21:00.701Z,148.48
2023-05-05T12:22:00.725Z,145.27
2023-05-05T12:23:00.769Z,137.84
2023-05-05T12:24:00.684Z,139.12
2023-05-05T12:25:00.914Z,135.55
2023-05-05T12:26:00.697Z,134.68
2023-05-05T12:27:00.699Z,133.62
2023-05-05T12:28:00.664Z,131.32
2023-05-05T12:29:00.680Z,127.06
2023-05-05T12:30:00.662Z,129.21
2023-05-05T12:31:00.724Z,120.69
2023-05-05T12:32:00.816Z,119.38
2023-05-05T12:33:00.663Z,119.29
2023-05-05T12:34:00.637Z,119.03
2023-05-05T12:35:00.625Z,119.09
2023-05-05T12:36:00.611Z,119.03
2023-05-05T12:37:00.594Z,118.26
2023-05-05T12:38:00.577Z,116.43
2023-05-05T12:39:00.575Z,115.59
2023-05-05T12:40:00.551Z,112.33
2023-05-05T12:41:00.608Z,114.29
2023-05-05T12:42:00.558Z,114.49
2023-05-05T12:43:00.488Z,106.92
2023-05-05T12:44:00.499Z,109.82
2023-05-05T12:45:00.481Z,99.51
2023-05-05T12:46:00.529Z,96.59
2023-05-05T12:47:00.429Z,95.42
2023-05-05T12:48:00.449Z,97.67
2023-05-05T12:49:00.422Z,97.82
2023-05-05T12:50:00.416Z,95.32
2023-05-05T12:51:00.387Z,95.38
2023-05-05T12:52:00.887Z,95.74
2023-05-05T12:53:00.346Z,96.41
2023-05-05T12:54:00.319Z,98.78
2023-05-05T12:55:00.401Z,106.33
2023-05-05T12:56:00.287Z,107.94
2023-05-05T12:57:00.275Z,111.84
2023-05-05T12:58:00.275Z,101.21
2023-05-05T12:59:00.258Z,98.41
2023-05-05T13:00:00.215Z,99.39
2023-05-05T13:02:00.278Z,111.28
2023-05-05T13:03:00.432Z,113.07
2023-05-05T13:04:00.133Z,114.91
2023-05-05T13:06:19.358Z,0.50
2023-05-05T13:07:19.190Z,0.50
2023-05-05T13:08:19.160Z,0.50
2023-05-05T13:09:19.127Z,0.50